sensor_id;sensor_type;location;lat;lon;timestamp;P1;durP1;ratioP1;P2;durP2;ratioP2
29814;SDS011;16708;50.426;7.664;2024-02-26T00:03:34;0.90;;;0.60;;
29814;SDS011;16708;50.426;7.664;2024-02-26T00:08:28;1.00;;;0.70;;
29814;SDS011;16708;50.426;7.664;2024-02-26T00:13:22;2.30;;;0.80;;
29814;SDS011;16708;50.426;7.664;2024-02-26T00:18:16;1.80;;;0.70;;
29814;SDS011;16708;50.426;7.664;2024-02-26T00:23:10;1.80;;;0.80;;
29814;SDS011;16708;50.426;7.664;2024-02-26T00:28:02;1.20;;;0.80;;
29814;SDS011;16708;50.426;7.664;2024-02-26T00:32:58;2.40;;;0.70;;
29814;SDS011;16708;50.426;7.664;2024-02-26T00:37:51;2.40;;;0.70;;
29814;SDS011;16708;50.426;7.664;2024-02-26T00:42:46;1.80;;;0.80;;
29814;SDS011;16708;50.426;7.664;2024-02-26T00:47:40;1.20;;;0.90;;
29814;SDS011;16708;50.426;7.664;2024-02-26T00:52:33;1.40;;;0.60;;
29814;SDS011;16708;50.426;7.664;2024-02-26T00:57:27;0.70;;;0.60;;
29814;SDS011;16708;50.426;7.664;2024-02-26T01:02:20;1.20;;;0.70;;
29814;SDS011;16708;50.426;7.664;2024-02-26T01:07:15;2.90;;;0.80;;
29814;SDS011;16708;50.426;7.664;2024-02-26T01:12:09;1.20;;;0.70;;
29814;SDS011;16708;50.426;7.664;2024-02-26T01:17:03;3.70;;;1.00;;
29814;SDS011;16708;50.426;7.664;2024-02-26T01:21:57;1.40;;;0.70;;
29814;SDS011;16708;50.426;7.664;2024-02-26T01:26:51;1.30;;;0.60;;
29814;SDS011;16708;50.426;7.664;2024-02-26T01:36:40;2.80;;;0.90;;
29814;SDS011;16708;50.426;7.664;2024-02-26T01:41:33;0.90;;;0.40;;
29814;SDS011;16708;50.426;7.664;2024-02-26T01:46:28;1.00;;;0.70;;
29814;SDS011;16708;50.426;7.664;2024-02-26T01:51:21;0.80;;;0.40;;
29814;SDS011;16708;50.426;7.664;2024-02-26T01:56:16;0.90;;;0.60;;
29814;SDS011;16708;50.426;7.664;2024-02-26T02:01:10;1.20;;;0.60;;
29814;SDS011;16708;50.426;7.664;2024-02-26T02:06:03;0.60;;;0.40;;
29814;SDS011;16708;50.426;7.664;2024-02-26T02:10:57;1.70;;;0.50;;
29814;SDS011;16708;50.426;7.664;2024-02-26T02:15:52;1.60;;;0.40;;
29814;SDS011;16708;50.426;7.664;2024-02-26T02:20:46;1.20;;;0.50;;
29814;SDS011;16708;50.426;7.664;2024-02-26T02:25:40;1.20;;;0.50;;
29814;SDS011;16708;50.426;7.664;2024-02-26T02:30:35;1.10;;;0.50;;
29814;SDS011;16708;50.426;7.664;2024-02-26T02:35:29;0.90;;;0.50;;
29814;SDS011;16708;50.426;7.664;2024-02-26T02:40:23;0.70;;;0.40;;
29814;SDS011;16708;50.426;7.664;2024-02-26T02:45:17;1.00;;;0.50;;
29814;SDS011;16708;50.426;7.664;2024-02-26T02:50:09;1.60;;;0.60;;
29814;SDS011;16708;50.426;7.664;2024-02-26T02:55:03;1.80;;;0.60;;
29814;SDS011;16708;50.426;7.664;2024-02-26T02:59:57;1.30;;;0.60;;
29814;SDS011;16708;50.426;7.664;2024-02-26T03:04:52;0.80;;;0.60;;
29814;SDS011;16708;50.426;7.664;2024-02-26T03:09:46;1.90;;;0.60;;
29814;SDS011;16708;50.426;7.664;2024-02-26T03:14:40;1.30;;;0.70;;
29814;SDS011;16708;50.426;7.664;2024-02-26T03:19:34;1.00;;;0.60;;
29814;SDS011;16708;50.426;7.664;2024-02-26T03:24:28;1.80;;;1.20;;
29814;SDS011;16708;50.426;7.664;2024-02-26T03:29:21;2.10;;;0.80;;
29814;SDS011;16708;50.426;7.664;2024-02-26T03:34:16;2.20;;;0.90;;
29814;SDS011;16708;50.426;7.664;2024-02-26T03:39:10;3.40;;;1.00;;
29814;SDS011;16708;50.426;7.664;2024-02-26T03:44:03;2.20;;;0.90;;
29814;SDS011;16708;50.426;7.664;2024-02-26T03:48:54;2.90;;;1.50;;
29814;SDS011;16708;50.426;7.664;2024-02-26T03:53:48;6.20;;;2.20;;
29814;SDS011;16708;50.426;7.664;2024-02-26T03:58:43;4.60;;;1.90;;
29814;SDS011;16708;50.426;7.664;2024-02-26T04:03:37;4.70;;;1.90;;
29814;SDS011;16708;50.426;7.664;2024-02-26T04:08:31;3.90;;;1.90;;
29814;SDS011;16708;50.426;7.664;2024-02-26T04:13:26;3.30;;;1.60;;
29814;SDS011;16708;50.426;7.664;2024-02-26T04:18:20;4.50;;;1.70;;
29814;SDS011;16708;50.426;7.664;2024-02-26T04:23:14;2.40;;;1.30;;
29814;SDS011;16708;50.426;7.664;2024-02-26T04:28:08;3.10;;;1.40;;
29814;SDS011;16708;50.426;7.664;2024-02-26T04:33:02;2.60;;;1.30;;
29814;SDS011;16708;50.426;7.664;2024-02-26T04:42:51;2.70;;;1.40;;
29814;SDS011;16708;50.426;7.664;2024-02-26T04:57:26;3.10;;;1.30;;
29814;SDS011;16708;50.426;7.664;2024-02-26T05:02:20;3.10;;;1.60;;
29814;SDS011;16708;50.426;7.664;2024-02-26T05:07:15;2.90;;;1.60;;
29814;SDS011;16708;50.426;7.664;2024-02-26T05:12:08;3.30;;;1.70;;
29814;SDS011;16708;50.426;7.664;2024-02-26T05:17:03;4.10;;;1.60;;
29814;SDS011;16708;50.426;7.664;2024-02-26T05:31:34;3.20;;;1.70;;
29814;SDS011;16708;50.426;7.664;2024-02-26T05:46:09;2.60;;;1.60;;
29814;SDS011;16708;50.426;7.664;2024-02-26T05:51:02;4.00;;;1.70;;
29814;SDS011;16708;50.426;7.664;2024-02-26T06:20:13;5.40;;;2.30;;
29814;SDS011;16708;50.426;7.664;2024-02-26T06:25:06;4.80;;;2.00;;
29814;SDS011;16708;50.426;7.664;2024-02-26T06:39:39;5.30;;;2.70;;
29814;SDS011;16708;50.426;7.664;2024-02-26T06:44:34;6.00;;;2.70;;
29814;SDS011;16708;50.426;7.664;2024-02-26T06:49:27;6.60;;;3.00;;
29814;SDS011;16708;50.426;7.664;2024-02-26T07:04:01;5.90;;;3.40;;
29814;SDS011;16708;50.426;7.664;2024-02-26T07:18:38;4.20;;;2.50;;
29814;SDS011;16708;50.426;7.664;2024-02-26T07:33:16;11.40;;;2.80;;
29814;SDS011;16708;50.426;7.664;2024-02-26T07:47:55;5.10;;;3.00;;
29814;SDS011;16708;50.426;7.664;2024-02-26T07:52:47;7.90;;;3.20;;
29814;SDS011;16708;50.426;7.664;2024-02-26T08:07:22;4.90;;;2.80;;
29814;SDS011;16708;50.426;7.664;2024-02-26T08:12:17;6.80;;;3.50;;
29814;SDS011;16708;50.426;7.664;2024-02-26T08:17:09;7.80;;;3.80;;
29814;SDS011;16708;50.426;7.664;2024-02-26T08:31:37;4.60;;;2.70;;
29814;SDS011;16708;50.426;7.664;2024-02-26T08:51:07;3.80;;;2.60;;
29814;SDS011;16708;50.426;7.664;2024-02-26T08:56:02;5.30;;;2.70;;
29814;SDS011;16708;50.426;7.664;2024-02-26T09:10:39;4.60;;;2.70;;
29814;SDS011;16708;50.426;7.664;2024-02-26T09:15:33;5.10;;;2.70;;
29814;SDS011;16708;50.426;7.664;2024-02-26T09:20:27;5.90;;;2.90;;
29814;SDS011;16708;50.426;7.664;2024-02-26T09:25:22;6.20;;;3.00;;
29814;SDS011;16708;50.426;7.664;2024-02-26T09:30:16;6.10;;;3.30;;
29814;SDS011;16708;50.426;7.664;2024-02-26T09:40:05;4.30;;;2.80;;
29814;SDS011;16708;50.426;7.664;2024-02-26T09:44:59;4.70;;;2.70;;
29814;SDS011;16708;50.426;7.664;2024-02-26T09:49:54;9.00;;;4.50;;
29814;SDS011;16708;50.426;7.664;2024-02-26T09:54:48;4.20;;;2.60;;
29814;SDS011;16708;50.426;7.664;2024-02-26T09:59:42;5.30;;;3.10;;
29814;SDS011;16708;50.426;7.664;2024-02-26T10:04:37;5.90;;;2.90;;
29814;SDS011;16708;50.426;7.664;2024-02-26T10:09:33;5.30;;;2.40;;
29814;SDS011;16708;50.426;7.664;2024-02-26T10:14:25;5.80;;;2.50;;
29814;SDS011;16708;50.426;7.664;2024-02-26T10:24:14;4.50;;;2.40;;
29814;SDS011;16708;50.426;7.664;2024-02-26T10:29:08;5.10;;;2.90;;
29814;SDS011;16708;50.426;7.664;2024-02-26T10:34:02;3.50;;;2.30;;
29814;SDS011;16708;50.426;7.664;2024-02-26T10:38:57;3.50;;;2.10;;
29814;SDS011;16708;50.426;7.664;2024-02-26T10:43:51;3.90;;;2.10;;
29814;SDS011;16708;50.426;7.664;2024-02-26T10:48:45;3.30;;;2.00;;
29814;SDS011;16708;50.426;7.664;2024-02-26T10:53:39;4.20;;;2.10;;
29814;SDS011;16708;50.426;7.664;2024-02-26T10:58:33;3.20;;;2.10;;
29814;SDS011;16708;50.426;7.664;2024-02-26T11:08:19;4.30;;;2.10;;
29814;SDS011;16708;50.426;7.664;2024-02-26T11:13:13;3.40;;;2.00;;
29814;SDS011;16708;50.426;7.664;2024-02-26T11:18:07;5.30;;;2.80;;
29814;SDS011;16708;50.426;7.664;2024-02-26T11:23:01;3.50;;;2.20;;
29814;SDS011;16708;50.426;7.664;2024-02-26T11:27:56;5.50;;;2.60;;
29814;SDS011;16708;50.426;7.664;2024-02-26T11:32:50;5.40;;;2.90;;
29814;SDS011;16708;50.426;7.664;2024-02-26T11:37:44;8.40;;;3.90;;
29814;SDS011;16708;50.426;7.664;2024-02-26T11:42:36;7.10;;;3.70;;
29814;SDS011;16708;50.426;7.664;2024-02-26T11:52:22;5.90;;;3.40;;
29814;SDS011;16708;50.426;7.664;2024-02-26T12:02:10;5.40;;;3.20;;
29814;SDS011;16708;50.426;7.664;2024-02-26T12:11:59;6.10;;;3.30;;
29814;SDS011;16708;50.426;7.664;2024-02-26T12:21:47;5.90;;;3.00;;
29814;SDS011;16708;50.426;7.664;2024-02-26T12:26:41;4.80;;;2.80;;
29814;SDS011;16708;50.426;7.664;2024-02-26T12:31:35;5.70;;;3.00;;
29814;SDS011;16708;50.426;7.664;2024-02-26T12:36:29;4.10;;;2.70;;
29814;SDS011;16708;50.426;7.664;2024-02-26T12:41:23;4.60;;;2.90;;
29814;SDS011;16708;50.426;7.664;2024-02-26T12:46:17;4.10;;;2.90;;
29814;SDS011;16708;50.426;7.664;2024-02-26T12:51:10;6.30;;;2.80;;
29814;SDS011;16708;50.426;7.664;2024-02-26T12:56:03;5.20;;;3.10;;
29814;SDS011;16708;50.426;7.664;2024-02-26T13:00:57;5.10;;;3.00;;
29814;SDS011;16708;50.426;7.664;2024-02-26T13:05:51;5.70;;;3.20;;
29814;SDS011;16708;50.426;7.664;2024-02-26T13:10:43;5.50;;;3.20;;
29814;SDS011;16708;50.426;7.664;2024-02-26T13:20:31;6.40;;;3.50;;
29814;SDS011;16708;50.426;7.664;2024-02-26T13:25:25;5.80;;;3.30;;
29814;SDS011;16708;50.426;7.664;2024-02-26T13:35:14;4.60;;;2.90;;
29814;SDS011;16708;50.426;7.664;2024-02-26T13:40:08;4.90;;;3.00;;
29814;SDS011;16708;50.426;7.664;2024-02-26T13:45:02;5.50;;;3.00;;
29814;SDS011;16708;50.426;7.664;2024-02-26T13:49:57;4.50;;;2.70;;
29814;SDS011;16708;50.426;7.664;2024-02-26T13:54:51;6.30;;;2.90;;
29814;SDS011;16708;50.426;7.664;2024-02-26T13:59:46;5.70;;;2.70;;
29814;SDS011;16708;50.426;7.664;2024-02-26T14:04:40;4.40;;;2.70;;
29814;SDS011;16708;50.426;7.664;2024-02-26T14:09:34;5.90;;;3.00;;
29814;SDS011;16708;50.426;7.664;2024-02-26T14:14:28;5.20;;;2.70;;
29814;SDS011;16708;50.426;7.664;2024-02-26T14:19:23;5.60;;;3.10;;
29814;SDS011;16708;50.426;7.664;2024-02-26T14:24:16;4.50;;;2.90;;
29814;SDS011;16708;50.426;7.664;2024-02-26T14:34:05;4.30;;;2.80;;
29814;SDS011;16708;50.426;7.664;2024-02-26T14:38:59;5.90;;;3.00;;
29814;SDS011;16708;50.426;7.664;2024-02-26T14:43:53;4.50;;;2.90;;
29814;SDS011;16708;50.426;7.664;2024-02-26T14:48:47;5.10;;;3.20;;
29814;SDS011;16708;50.426;7.664;2024-02-26T14:53:41;7.20;;;4.20;;
29814;SDS011;16708;50.426;7.664;2024-02-26T15:03:29;5.00;;;2.40;;
29814;SDS011;16708;50.426;7.664;2024-02-26T15:08:24;4.40;;;2.50;;
29814;SDS011;16708;50.426;7.664;2024-02-26T15:13:18;4.70;;;2.20;;
29814;SDS011;16708;50.426;7.664;2024-02-26T15:18:09;3.60;;;2.10;;
29814;SDS011;16708;50.426;7.664;2024-02-26T15:23:01;5.70;;;2.30;;
29814;SDS011;16708;50.426;7.664;2024-02-26T15:27:55;4.20;;;2.30;;
29814;SDS011;16708;50.426;7.664;2024-02-26T15:32:49;4.40;;;2.10;;
29814;SDS011;16708;50.426;7.664;2024-02-26T15:37:43;4.60;;;2.00;;
29814;SDS011;16708;50.426;7.664;2024-02-26T15:42:39;4.30;;;2.10;;
29814;SDS011;16708;50.426;7.664;2024-02-26T15:47:31;4.80;;;2.50;;
29814;SDS011;16708;50.426;7.664;2024-02-26T15:52:26;7.60;;;3.90;;
29814;SDS011;16708;50.426;7.664;2024-02-26T16:02:11;4.30;;;1.80;;
29814;SDS011;16708;50.426;7.664;2024-02-26T16:07:08;3.80;;;2.00;;
29814;SDS011;16708;50.426;7.664;2024-02-26T16:11:57;5.70;;;2.20;;
29814;SDS011;16708;50.426;7.664;2024-02-26T16:16:51;4.10;;;2.20;;
29814;SDS011;16708;50.426;7.664;2024-02-26T16:21:46;3.40;;;1.80;;
29814;SDS011;16708;50.426;7.664;2024-02-26T16:26:39;4.20;;;2.40;;
29814;SDS011;16708;50.426;7.664;2024-02-26T16:31:33;3.80;;;1.90;;
29814;SDS011;16708;50.426;7.664;2024-02-26T16:36:26;3.40;;;1.80;;
29814;SDS011;16708;50.426;7.664;2024-02-26T16:41:20;4.40;;;1.90;;
29814;SDS011;16708;50.426;7.664;2024-02-26T16:55:54;4.70;;;2.40;;
29814;SDS011;16708;50.426;7.664;2024-02-26T17:00:48;5.10;;;2.60;;
29814;SDS011;16708;50.426;7.664;2024-02-26T17:05:42;6.80;;;3.90;;
29814;SDS011;16708;50.426;7.664;2024-02-26T17:20:18;8.50;;;3.90;;
29814;SDS011;16708;50.426;7.664;2024-02-26T17:25:10;7.80;;;3.90;;
29814;SDS011;16708;50.426;7.664;2024-02-26T17:30:04;8.40;;;4.00;;
29814;SDS011;16708;50.426;7.664;2024-02-26T17:44:35;9.20;;;3.50;;
29814;SDS011;16708;50.426;7.664;2024-02-26T17:59:11;9.60;;;4.20;;
29814;SDS011;16708;50.426;7.664;2024-02-26T18:13:59;8.90;;;4.50;;
29814;SDS011;16708;50.426;7.664;2024-02-26T18:28:07;11.00;;;4.30;;
29814;SDS011;16708;50.426;7.664;2024-02-26T18:42:43;8.50;;;4.20;;
29814;SDS011;16708;50.426;7.664;2024-02-26T18:57:20;10.30;;;4.80;;
29814;SDS011;16708;50.426;7.664;2024-02-26T19:11:57;10.80;;;5.40;;
29814;SDS011;16708;50.426;7.664;2024-02-26T19:26:34;24.40;;;11.70;;
29814;SDS011;16708;50.426;7.664;2024-02-26T19:41:12;13.90;;;7.10;;
29814;SDS011;16708;50.426;7.664;2024-02-26T19:55:49;12.90;;;7.30;;
29814;SDS011;16708;50.426;7.664;2024-02-26T20:10:26;11.20;;;6.20;;
29814;SDS011;16708;50.426;7.664;2024-02-26T20:25:02;10.90;;;5.90;;
29814;SDS011;16708;50.426;7.664;2024-02-26T20:54:18;13.00;;;6.80;;
29814;SDS011;16708;50.426;7.664;2024-02-26T21:08:48;12.80;;;6.60;;
29814;SDS011;16708;50.426;7.664;2024-02-26T21:23:21;17.20;;;7.70;;
29814;SDS011;16708;50.426;7.664;2024-02-26T21:37:58;14.20;;;7.90;;
29814;SDS011;16708;50.426;7.664;2024-02-26T21:52:36;14.60;;;8.20;;
29814;SDS011;16708;50.426;7.664;2024-02-26T22:07:13;18.50;;;9.40;;
29814;SDS011;16708;50.426;7.664;2024-02-26T22:21:50;18.30;;;9.60;;
29814;SDS011;16708;50.426;7.664;2024-02-26T22:36:29;20.00;;;10.10;;
29814;SDS011;16708;50.426;7.664;2024-02-26T22:51:04;18.90;;;9.90;;
29814;SDS011;16708;50.426;7.664;2024-02-26T23:05:42;22.80;;;12.00;;
29814;SDS011;16708;50.426;7.664;2024-02-26T23:20:16;33.20;;;13.70;;
29814;SDS011;16708;50.426;7.664;2024-02-26T23:34:53;21.30;;;10.70;;
29814;SDS011;16708;50.426;7.664;2024-02-26T23:49:31;25.10;;;13.20;;
